createdAt,value
2018-01-24T00:00:34.061Z,101122.94
2018-01-24T00:03:02.481Z,101122.64
2018-01-24T00:05:30.924Z,101126.98
2018-01-24T00:07:59.447Z,101130.72
2018-01-24T00:10:27.904Z,101137.57
2018-01-24T00:12:56.304Z,101132.63
2018-01-24T00:15:24.835Z,101133.88
2018-01-24T00:17:53.266Z,101133.72
2018-01-24T00:20:21.709Z,101141.63
2018-01-24T00:22:50.187Z,101149.42
2018-01-24T00:25:18.661Z,101154.46
2018-01-24T00:27:47.072Z,101157.50
2018-01-24T00:30:15.513Z,101163.02
2018-01-24T00:32:44.045Z,101167.97
2018-01-24T00:35:12.556Z,101170.42
2018-01-24T00:37:41.013Z,101172.78
2018-01-24T00:40:09.481Z,101170.19
2018-01-24T00:42:37.925Z,101159.45
2018-01-24T00:45:06.365Z,101170.57
2018-01-24T00:47:34.879Z,101170.60
2018-01-24T00:50:03.289Z,101175.43
2018-01-24T00:52:31.725Z,101177.43
2018-01-24T00:55:00.136Z,101186.27
2018-01-24T00:57:28.576Z,101175.31
2018-01-24T00:59:57.043Z,101192.83
2018-01-24T01:02:25.541Z,101195.45
2018-01-24T01:04:53.987Z,101184.97
2018-01-24T01:07:22.432Z,101196.70
2018-01-24T01:09:50.879Z,101196.83
2018-01-24T01:12:19.338Z,101199.27
2018-01-24T01:14:47.784Z,101194.92
2018-01-24T01:17:16.256Z,101192.38
2018-01-24T01:19:44.723Z,101201.91
2018-01-24T01:22:13.152Z,101202.52
2018-01-24T01:24:41.601Z,101205.81
2018-01-24T01:27:10.004Z,101212.03
2018-01-24T01:29:38.512Z,101211.48
2018-01-24T01:32:06.966Z,101210.73
2018-01-24T01:34:35.393Z,101224.58
2018-01-24T01:37:03.873Z,101222.77
2018-01-24T01:39:32.349Z,101222.49
2018-01-24T01:42:00.769Z,101221.02
2018-01-24T01:44:29.218Z,101222.66
2018-01-24T01:46:57.745Z,101231.34
2018-01-24T01:49:26.245Z,101229.39
2018-01-24T01:51:54.725Z,101219.97
2018-01-24T01:54:23.261Z,101227.09
2018-01-24T01:56:51.705Z,101227.27
2018-01-24T01:59:20.175Z,101223.16
2018-01-24T02:01:48.673Z,101214.05
2018-01-24T02:04:17.089Z,101221.96
2018-01-24T02:06:45.598Z,101223.11
2018-01-24T02:09:14.054Z,101225.10
2018-01-24T02:11:42.484Z,101223.77
2018-01-24T02:14:10.908Z,101224.13
2018-01-24T02:16:39.471Z,101222.38
2018-01-24T02:19:07.893Z,101236.83
2018-01-24T02:21:36.405Z,101238.36
2018-01-24T02:24:04.946Z,101243.77
2018-01-24T02:26:33.392Z,101242.42
2018-01-24T02:29:01.811Z,101239.38
2018-01-24T02:31:30.244Z,101221.59
2018-01-24T02:33:58.657Z,101250.92
2018-01-24T02:36:27.167Z,101254.02
2018-01-24T02:39:07.354Z,101253.09
2018-01-24T02:41:35.777Z,101254.94
2018-01-24T02:44:04.228Z,101250.87
2018-01-24T02:46:32.714Z,101237.94
2018-01-24T02:49:01.189Z,101256.10
2018-01-24T02:51:29.751Z,101258.45
2018-01-24T02:53:58.230Z,101256.33
2018-01-24T02:56:26.649Z,101258.19
2018-01-24T02:58:55.097Z,101254.66
2018-01-24T03:01:23.621Z,101264.52
2018-01-24T03:03:52.066Z,101259.52
2018-01-24T03:06:20.468Z,101256.89
2018-01-24T03:08:48.925Z,101267.89
2018-01-24T03:11:17.390Z,101269.08
2018-01-24T03:13:45.865Z,101274.31
2018-01-24T03:16:14.321Z,101271.07
2018-01-24T03:18:42.851Z,101263.49
2018-01-24T03:21:11.286Z,101261.23
2018-01-24T03:23:39.696Z,101265.66
2018-01-24T03:26:08.169Z,101284.85
2018-01-24T03:28:36.587Z,101279.39
2018-01-24T03:31:05.110Z,101284.89
2018-01-24T03:33:33.572Z,101285.63
2018-01-24T03:36:02.053Z,101284.30
2018-01-24T03:38:30.519Z,101294.00
2018-01-24T03:40:58.988Z,101297.00
2018-01-24T03:43:27.439Z,101299.12
2018-01-24T03:45:55.844Z,101300.23
2018-01-24T03:48:24.261Z,101309.02
2018-01-24T03:50:52.733Z,101310.63
2018-01-24T03:53:21.237Z,101311.70
2018-01-24T03:55:49.717Z,101304.95
2018-01-24T03:58:18.151Z,101315.72
2018-01-24T04:00:46.665Z,101310.83
2018-01-24T04:03:15.083Z,101312.11
2018-01-24T04:05:43.640Z,101315.44
2018-01-24T04:08:12.051Z,101304.30
2018-01-24T04:10:40.477Z,101313.59
2018-01-24T04:13:08.975Z,101319.28
2018-01-24T04:15:37.410Z,101321.48
2018-01-24T04:18:05.822Z,101323.30
2018-01-24T04:20:34.346Z,101327.69
2018-01-24T04:23:02.766Z,101330.00
2018-01-24T04:25:31.268Z,101329.25
2018-01-24T04:27:59.720Z,101334.80
2018-01-24T04:30:28.175Z,101340.57
2018-01-24T04:32:56.645Z,101339.23
2018-01-24T04:35:25.090Z,101346.86
2018-01-24T04:37:53.488Z,101355.32
2018-01-24T04:40:22.029Z,101353.64
2018-01-24T04:42:50.656Z,101360.61
2018-01-24T04:45:19.089Z,101359.01
2018-01-24T04:47:47.593Z,101365.39
2018-01-24T04:50:16.069Z,101368.94
2018-01-24T04:52:44.569Z,101367.05
2018-01-24T04:55:13.015Z,101378.09
2018-01-24T04:57:41.549Z,101384.10
2018-01-24T05:00:09.973Z,101382.13
2018-01-24T05:02:38.485Z,101391.59
2018-01-24T05:05:06.977Z,101397.95
2018-01-24T05:07:35.515Z,101396.25
2018-01-24T05:10:03.956Z,101398.84
2018-01-24T05:12:32.436Z,101398.93
2018-01-24T05:15:00.864Z,101407.85
2018-01-24T05:17:29.293Z,101418.78
2018-01-24T05:19:57.813Z,101409.95
2018-01-24T05:22:26.289Z,101409.73
2018-01-24T05:24:54.790Z,101428.44
2018-01-24T05:27:23.254Z,101417.18
2018-01-24T05:29:51.726Z,101429.38
2018-01-24T05:32:20.227Z,101432.14
2018-01-24T05:34:48.676Z,101431.02
2018-01-24T05:37:17.133Z,101438.42
2018-01-24T05:39:45.589Z,101439.98
2018-01-24T05:42:14.024Z,101445.00
2018-01-24T05:44:42.425Z,101447.09
2018-01-24T05:47:10.935Z,101430.67
2018-01-24T05:49:39.401Z,101430.03
2018-01-24T05:52:07.932Z,101451.97
2018-01-24T05:54:36.402Z,101458.91
2018-01-24T05:57:04.881Z,101465.70
2018-01-24T05:59:33.287Z,101466.05
2018-01-24T06:02:01.711Z,101465.67
2018-01-24T06:04:30.116Z,101470.79
2018-01-24T06:06:58.590Z,101474.73
2018-01-24T06:09:26.996Z,101477.91
2018-01-24T06:11:55.411Z,101477.16
2018-01-24T06:14:23.867Z,101484.63
2018-01-24T06:16:52.285Z,101483.28
2018-01-24T06:19:20.755Z,101493.34
2018-01-24T06:21:49.197Z,101500.05
2018-01-24T06:24:17.803Z,101500.59
2018-01-24T06:26:46.273Z,101485.95
2018-01-24T06:29:14.690Z,101501.02
2018-01-24T06:31:43.192Z,101503.48
2018-01-24T06:34:11.613Z,101514.55
2018-01-24T06:36:40.133Z,101516.00
2018-01-24T06:39:08.593Z,101532.41
2018-01-24T06:41:37.061Z,101528.10
2018-01-24T06:44:05.464Z,101528.23
2018-01-24T06:46:33.983Z,101538.84
2018-01-24T06:49:02.396Z,101542.38
2018-01-24T06:51:30.942Z,101545.69
2018-01-24T06:53:59.390Z,101518.81
2018-01-24T06:56:27.920Z,101557.59
2018-01-24T06:58:56.449Z,101552.21
2018-01-24T07:01:24.857Z,101550.84
2018-01-24T07:03:53.337Z,101555.78
2018-01-24T07:06:21.845Z,101539.48
2018-01-24T07:08:50.254Z,101547.42
2018-01-24T07:11:18.665Z,101547.70
2018-01-24T07:13:58.793Z,101560.55
2018-01-24T07:16:27.249Z,101558.45
2018-01-24T07:18:55.751Z,101562.23
2018-01-24T07:21:24.234Z,101563.84
2018-01-24T07:23:52.673Z,101552.15
2018-01-24T07:26:21.097Z,101557.56
2018-01-24T07:28:49.544Z,101545.16
2018-01-24T07:31:17.981Z,101557.64
2018-01-24T07:33:46.414Z,101562.33
2018-01-24T07:36:14.813Z,101563.19
2018-01-24T07:38:43.321Z,101567.25
2018-01-24T07:41:11.953Z,101567.91
2018-01-24T07:43:40.381Z,101563.53
2018-01-24T07:46:08.784Z,101577.50
2018-01-24T07:48:37.249Z,101555.59
2018-01-24T07:51:05.667Z,101565.00
2018-01-24T07:53:34.140Z,101581.09
2018-01-24T07:56:02.548Z,101586.84
2018-01-24T07:58:31.106Z,101567.95
2018-01-24T08:00:59.613Z,101479.23
2018-01-24T08:03:28.065Z,101595.09
2018-01-24T08:05:56.509Z,101599.20
2018-01-24T08:08:25.017Z,101598.98
2018-01-24T08:10:53.499Z,101600.79
2018-01-24T08:13:21.975Z,101583.13
2018-01-24T08:15:50.481Z,101596.78
2018-01-24T08:18:19.018Z,101603.35
2018-01-24T08:20:47.457Z,101603.41
2018-01-24T08:23:15.900Z,101601.25
2018-01-24T08:25:44.344Z,101602.42
2018-01-24T08:28:12.842Z,101609.01
2018-01-24T08:30:41.353Z,101605.96
2018-01-24T08:33:09.825Z,101607.19
2018-01-24T08:35:38.258Z,101618.55
2018-01-24T08:38:06.913Z,101625.91
2018-01-24T08:40:35.340Z,101624.88
2018-01-24T08:43:03.797Z,101628.32
2018-01-24T08:45:33.106Z,101625.39
2018-01-24T08:48:01.663Z,101626.70
2018-01-24T08:50:30.171Z,101635.70
2018-01-24T08:52:58.603Z,101633.81
2018-01-24T08:55:27.054Z,101628.83
2018-01-24T08:57:56.204Z,101634.86
2018-01-24T09:00:24.729Z,101634.22
2018-01-24T09:02:53.154Z,101629.19
2018-01-24T09:05:21.672Z,101638.42
2018-01-24T09:07:50.181Z,101627.69
2018-01-24T09:10:18.606Z,101625.19
2018-01-24T09:12:47.146Z,101621.95
2018-01-24T09:15:15.637Z,101630.55
2018-01-24T09:17:44.113Z,101619.16
2018-01-24T09:20:12.594Z,101627.99
2018-01-24T09:22:41.163Z,101642.23
2018-01-24T09:25:09.750Z,101644.58
2018-01-24T09:27:38.236Z,101655.07
2018-01-24T09:30:06.764Z,101652.45
2018-01-24T09:32:35.253Z,101658.20
2018-01-24T09:35:03.690Z,101643.69
2018-01-24T09:37:32.208Z,101643.34
2018-01-24T09:40:00.673Z,101642.13
2018-01-24T09:42:29.149Z,101627.44
2018-01-24T09:44:57.663Z,101623.79
2018-01-24T09:47:26.177Z,101640.08
2018-01-24T09:49:54.592Z,101642.45
2018-01-24T09:52:23.059Z,101607.80
2018-01-24T09:54:51.529Z,101632.88
2018-01-24T09:57:20.028Z,101632.36
2018-01-24T09:59:48.454Z,101639.19
2018-01-24T10:02:16.899Z,101628.20
2018-01-24T10:04:45.397Z,101622.77
2018-01-24T10:07:13.801Z,101624.08
2018-01-24T10:09:42.236Z,101620.97
2018-01-24T10:12:10.673Z,101585.00
2018-01-24T10:14:39.135Z,101622.94
2018-01-24T10:17:07.595Z,101620.11
2018-01-24T10:19:36.047Z,101633.17
2018-01-24T10:22:04.462Z,101614.15
2018-01-24T10:24:33.005Z,101634.94
2018-01-24T10:27:01.537Z,101630.28
2018-01-24T10:29:29.952Z,101613.53
2018-01-24T10:31:58.450Z,101578.34
2018-01-24T10:34:26.932Z,101566.64
2018-01-24T10:36:55.376Z,101611.33
2018-01-24T10:39:23.821Z,101627.20
2018-01-24T10:41:52.279Z,101609.70
2018-01-24T10:44:20.741Z,101581.30
2018-01-24T10:46:49.157Z,101610.59
2018-01-24T10:49:17.608Z,101621.58
2018-01-24T10:51:46.589Z,101520.67
2018-01-24T10:54:15.181Z,101605.53
2018-01-24T10:56:43.680Z,101605.48
2018-01-24T10:59:12.167Z,101595.70
2018-01-24T11:01:40.573Z,101612.87
2018-01-24T11:04:09.110Z,101610.48
2018-01-24T11:06:37.562Z,101604.96
2018-01-24T11:09:05.982Z,101600.21
2018-01-24T11:11:34.525Z,101595.19
2018-01-24T11:14:02.924Z,101587.38
2018-01-24T11:16:31.374Z,101561.42
2018-01-24T11:18:59.871Z,101589.52
2018-01-24T11:21:29.649Z,101566.45
2018-01-24T11:23:58.397Z,101594.27
2018-01-24T11:26:26.909Z,101569.23
2018-01-24T11:28:55.443Z,101588.04
2018-01-24T11:31:23.874Z,101585.99
2018-01-24T11:33:52.316Z,101585.16
2018-01-24T11:36:20.728Z,101550.28
2018-01-24T11:38:49.161Z,101580.88
2018-01-24T11:41:17.558Z,101580.62
2018-01-24T11:43:46.053Z,101567.73
2018-01-24T11:46:14.504Z,101547.77
2018-01-24T11:48:42.943Z,101568.05
2018-01-24T11:51:11.381Z,101570.08
2018-01-24T11:53:39.839Z,101553.05
2018-01-24T11:56:08.233Z,101550.79
2018-01-24T11:58:36.674Z,101567.78
2018-01-24T12:01:05.146Z,101561.20
2018-01-24T12:03:33.530Z,101565.19
2018-01-24T12:06:01.938Z,101547.68
2018-01-24T12:08:30.362Z,101556.81
2018-01-24T12:10:58.788Z,101555.75
2018-01-24T12:13:27.246Z,101536.57
2018-01-24T12:15:55.697Z,101554.45
2018-01-24T12:18:24.121Z,101562.72
2018-01-24T12:20:52.545Z,101562.45
2018-01-24T12:23:21.076Z,101557.67
2018-01-24T12:25:49.606Z,101560.28
2018-01-24T12:28:18.044Z,101553.30
2018-01-24T12:30:46.478Z,101548.72
2018-01-24T12:33:16.976Z,101546.29
2018-01-24T12:35:46.446Z,101550.27
2018-01-24T12:38:15.868Z,101553.25
2018-01-24T12:40:45.968Z,101553.17
2018-01-24T12:43:15.323Z,101553.12
2018-01-24T12:45:44.543Z,101553.51
2018-01-24T12:48:16.714Z,101554.12
2018-01-24T12:50:45.527Z,101552.03
2018-01-24T12:53:14.381Z,101537.69
2018-01-24T12:55:43.076Z,101551.67
2018-01-24T12:58:11.857Z,101560.48
2018-01-24T13:00:40.781Z,101554.83
2018-01-24T13:03:09.803Z,101549.81
2018-01-24T13:05:38.553Z,101557.58
2018-01-24T13:08:07.349Z,101552.56
2018-01-24T13:10:35.812Z,101544.01
2018-01-24T13:13:04.216Z,101545.26
2018-01-24T13:15:32.620Z,101554.09
2018-01-24T13:18:01.046Z,101554.03
2018-01-24T13:20:29.465Z,101557.56
2018-01-24T13:22:57.901Z,101554.12
2018-01-24T13:25:26.305Z,101553.00
2018-01-24T13:27:54.757Z,101540.44
2018-01-24T13:30:23.206Z,101555.22
2018-01-24T13:32:51.641Z,101553.77
2018-01-24T13:35:20.093Z,101534.94
2018-01-24T13:37:48.544Z,101552.31
2018-01-24T13:40:16.987Z,101553.45
2018-01-24T13:42:45.432Z,101549.72
2018-01-24T13:45:13.924Z,101546.61
2018-01-24T13:47:42.356Z,101531.52
2018-01-24T13:50:10.828Z,101540.79
2018-01-24T13:52:39.272Z,101549.64
2018-01-24T13:55:07.697Z,101562.20
2018-01-24T13:57:36.129Z,101552.89
2018-01-24T14:00:04.591Z,101560.41
2018-01-24T14:02:33.078Z,101553.06
2018-01-24T14:05:01.533Z,101551.30
2018-01-24T14:07:29.940Z,101551.41
2018-01-24T14:09:58.333Z,101561.10
2018-01-24T14:12:26.769Z,101562.61
2018-01-24T14:14:55.197Z,101561.52
2018-01-24T14:17:23.640Z,101553.85
2018-01-24T14:19:52.033Z,101559.13
2018-01-24T14:22:20.485Z,101552.05
2018-01-24T14:24:48.941Z,101549.69
2018-01-24T14:27:17.387Z,101557.45
2018-01-24T14:29:45.853Z,101570.38
2018-01-24T14:32:14.250Z,101562.37
2018-01-24T14:34:43.931Z,101453.28
2018-01-24T14:37:12.376Z,101556.20
2018-01-24T14:39:40.825Z,101563.28
2018-01-24T14:42:09.230Z,101563.11
2018-01-24T14:44:37.669Z,101562.33
2018-01-24T14:47:06.102Z,101564.77
2018-01-24T14:49:34.540Z,101550.02
2018-01-24T14:52:02.954Z,101543.71
2018-01-24T14:54:31.401Z,101534.87
2018-01-24T14:56:59.809Z,101565.77
2018-01-24T14:59:28.205Z,101559.52
2018-01-24T15:01:56.717Z,101561.25
2018-01-24T15:04:25.141Z,101554.89
2018-01-24T15:06:53.614Z,101545.20
2018-01-24T15:09:22.041Z,101562.56
2018-01-24T15:11:50.604Z,101565.52
2018-01-24T15:14:19.058Z,101553.28
2018-01-24T15:16:47.469Z,101568.73
2018-01-24T15:19:15.921Z,101575.42
2018-01-24T15:21:44.393Z,101574.84
2018-01-24T15:24:13.584Z,101577.21
2018-01-24T15:26:41.984Z,101580.98
2018-01-24T15:29:10.417Z,101589.46
2018-01-24T15:31:38.816Z,101594.66
2018-01-24T15:34:07.355Z,101574.28
2018-01-24T15:36:35.765Z,101553.58
2018-01-24T15:39:04.318Z,101580.39
2018-01-24T15:41:32.819Z,101575.63
2018-01-24T15:44:01.258Z,101588.72
2018-01-24T15:46:29.708Z,101592.00
2018-01-24T15:48:58.173Z,101591.95
2018-01-24T15:51:26.637Z,101591.70
2018-01-24T15:53:55.105Z,101596.61
2018-01-24T15:56:23.613Z,101605.02
2018-01-24T15:58:52.076Z,101599.22
2018-01-24T16:01:20.512Z,101594.05
2018-01-24T16:03:48.958Z,101619.76
2018-01-24T16:06:17.387Z,101618.49
2018-01-24T16:08:45.906Z,101629.22
2018-01-24T16:11:14.365Z,101621.50
2018-01-24T16:13:42.776Z,101644.52
2018-01-24T16:16:11.262Z,101653.39
2018-01-24T16:18:39.673Z,101655.11
2018-01-24T16:21:08.158Z,101645.87
2018-01-24T16:23:36.601Z,101665.38
2018-01-24T16:26:05.048Z,101671.81
2018-01-24T16:28:33.453Z,101683.58
2018-01-24T16:31:01.888Z,101686.44
2018-01-24T16:33:30.351Z,101692.30
2018-01-24T16:35:58.835Z,101694.78
2018-01-24T16:38:27.337Z,101689.84
2018-01-24T16:40:55.846Z,101703.60
2018-01-24T16:43:24.258Z,101710.51
2018-01-24T16:45:52.700Z,101707.45
2018-01-24T16:48:21.173Z,101708.53
2018-01-24T16:50:49.736Z,101710.70
2018-01-24T16:53:18.194Z,101718.84
2018-01-24T16:55:46.684Z,101719.17
2018-01-24T16:58:15.155Z,101718.05
2018-01-24T17:00:43.584Z,101721.47
2018-01-24T17:03:12.029Z,101722.99
2018-01-24T17:05:40.490Z,101728.05
2018-01-24T17:08:08.946Z,101738.41
2018-01-24T17:10:37.466Z,101737.40
2018-01-24T17:13:05.887Z,101731.23
2018-01-24T17:15:34.396Z,101728.37
2018-01-24T17:18:02.825Z,101753.66
2018-01-24T17:20:31.268Z,101745.23
2018-01-24T17:22:59.665Z,101754.28
2018-01-24T17:25:28.061Z,101747.00
2018-01-24T17:27:56.498Z,101747.73
2018-01-24T17:30:24.908Z,101750.09
2018-01-24T17:32:53.425Z,101748.03
2018-01-24T17:35:22.505Z,101744.20
2018-01-24T17:37:50.997Z,101752.16
2018-01-24T17:40:19.493Z,101747.82
2018-01-24T17:42:47.949Z,101765.89
2018-01-24T17:45:16.392Z,101744.11
2018-01-24T17:47:44.845Z,101765.44
2018-01-24T17:50:13.298Z,101762.16
2018-01-24T17:52:41.746Z,101766.48
2018-01-24T17:55:10.232Z,101761.14
2018-01-24T17:57:38.687Z,101759.16
2018-01-24T18:00:07.174Z,101771.92
2018-01-24T18:02:35.697Z,101769.98
2018-01-24T18:05:04.159Z,101767.99
2018-01-24T18:07:32.561Z,101765.44
2018-01-24T18:10:01.126Z,101766.63
2018-01-24T18:12:29.533Z,101769.21
2018-01-24T18:14:57.945Z,101774.06
2018-01-24T18:17:26.428Z,101770.59
2018-01-24T18:19:54.865Z,101772.73
2018-01-24T18:22:23.318Z,101769.44
2018-01-24T18:24:51.809Z,101767.48
2018-01-24T18:27:20.253Z,101773.17
2018-01-24T18:29:48.749Z,101768.59
2018-01-24T18:32:17.172Z,101771.62
2018-01-24T18:34:45.634Z,101776.78
2018-01-24T18:37:14.159Z,101779.33
2018-01-24T18:39:42.577Z,101777.08
2018-01-24T18:42:10.986Z,101774.38
2018-01-24T18:44:39.452Z,101780.22
2018-01-24T18:47:07.957Z,101785.25
2018-01-24T18:49:36.404Z,101790.22
2018-01-24T18:52:04.829Z,101792.81
2018-01-24T18:54:33.306Z,101792.20
2018-01-24T18:57:01.738Z,101792.43
2018-01-24T18:59:30.210Z,101791.17
2018-01-24T19:01:58.721Z,101791.40
2018-01-24T19:04:27.197Z,101788.00
2018-01-24T19:06:55.693Z,101799.80
2018-01-24T19:09:24.118Z,101793.12
2018-01-24T19:11:52.629Z,101799.11
2018-01-24T19:14:21.032Z,101796.75
2018-01-24T19:16:49.500Z,101795.48
2018-01-24T19:19:17.908Z,101809.34
2018-01-24T19:21:46.380Z,101803.31
2018-01-24T19:24:14.824Z,101799.56
2018-01-24T19:26:43.243Z,101803.50
2018-01-24T19:29:11.761Z,101803.45
2018-01-24T19:31:40.239Z,101807.34
2018-01-24T19:34:08.669Z,101815.05
2018-01-24T19:36:37.101Z,101804.06
2018-01-24T19:39:05.580Z,101803.83
2018-01-24T19:41:33.998Z,101805.53
2018-01-24T19:44:02.473Z,101806.09
2018-01-24T19:46:31.006Z,101813.44
2018-01-24T19:48:59.485Z,101810.39
2018-01-24T19:51:27.932Z,101812.50
2018-01-24T19:53:56.323Z,101806.63
2018-01-24T19:56:24.874Z,101796.33
2018-01-24T19:58:53.378Z,101809.22
2018-01-24T20:01:21.793Z,101805.58
2018-01-24T20:03:50.242Z,101793.28
2018-01-24T20:06:18.716Z,101800.23
2018-01-24T20:08:47.181Z,101786.41
2018-01-24T20:11:15.579Z,101788.90
2018-01-24T20:13:44.032Z,101790.80
2018-01-24T20:16:12.459Z,101790.80
2018-01-24T20:18:40.886Z,101779.98
2018-01-24T20:21:09.300Z,101779.02
2018-01-24T20:23:37.813Z,101778.72
2018-01-24T20:26:06.313Z,101778.80
2018-01-24T20:28:34.835Z,101773.66
2018-01-24T20:31:03.248Z,101768.31
2018-01-24T20:33:31.702Z,101769.39
2018-01-24T20:36:00.206Z,101771.98
2018-01-24T20:38:28.706Z,101774.23
2018-01-24T20:40:57.143Z,101767.52
2018-01-24T20:43:25.637Z,101765.05
2018-01-24T20:45:54.141Z,101771.45
2018-01-24T20:48:22.616Z,101768.48
2018-01-24T20:50:51.016Z,101769.81
2018-01-24T20:53:19.473Z,101767.63
2018-01-24T20:55:47.961Z,101771.09
2018-01-24T20:58:16.410Z,101765.97
2018-01-24T21:00:44.862Z,101761.73
2018-01-24T21:03:13.370Z,101763.70
2018-01-24T21:05:41.802Z,101753.92
2018-01-24T21:08:10.263Z,101761.29
2018-01-24T21:10:38.716Z,101760.98
2018-01-24T21:13:07.125Z,101762.84
2018-01-24T21:15:35.565Z,101765.79
2018-01-24T21:18:04.052Z,101758.39
2018-01-24T21:20:32.461Z,101757.69
2018-01-24T21:23:00.889Z,101749.87
2018-01-24T21:25:29.296Z,101749.20
2018-01-24T21:27:57.744Z,101750.11
2018-01-24T21:30:26.362Z,101739.78
2018-01-24T21:33:06.529Z,101731.74
2018-01-24T21:35:46.753Z,101728.09
2018-01-24T21:38:15.250Z,101729.84
2018-01-24T21:40:43.786Z,101716.61
2018-01-24T21:43:12.264Z,101727.56
2018-01-24T21:45:40.766Z,101722.45
2018-01-24T21:48:09.219Z,101718.17
2018-01-24T21:50:37.729Z,101716.35
2018-01-24T21:53:06.134Z,101721.05
2018-01-24T21:55:34.554Z,101720.03
2018-01-24T21:58:02.997Z,101699.85
2018-01-24T22:00:31.457Z,101704.52
2018-01-24T22:02:59.985Z,101713.73
2018-01-24T22:05:28.385Z,101711.17
2018-01-24T22:07:56.840Z,101708.33
2018-01-24T22:10:25.301Z,101702.05
2018-01-24T22:12:53.706Z,101688.94
2018-01-24T22:15:22.149Z,101696.59
2018-01-24T22:17:50.609Z,101699.85
2018-01-24T22:20:19.047Z,101694.10
2018-01-24T22:22:47.496Z,101702.05
2018-01-24T22:25:15.914Z,101707.84
2018-01-24T22:27:44.377Z,101708.11
2018-01-24T22:30:12.909Z,101710.53
2018-01-24T22:32:41.348Z,101703.63
2018-01-24T22:35:09.806Z,101697.86
2018-01-24T22:37:38.272Z,101703.27
2018-01-24T22:40:06.769Z,101711.12
2018-01-24T22:42:35.227Z,101705.97
2018-01-24T22:45:03.739Z,101710.06
2018-01-24T22:47:32.136Z,101709.77
2018-01-24T22:50:00.577Z,101717.83
2018-01-24T22:52:29.007Z,101704.42
2018-01-24T22:54:57.508Z,101710.09
2018-01-24T22:57:25.918Z,101713.39
2018-01-24T22:59:54.374Z,101720.63
2018-01-24T23:02:22.781Z,101702.99
2018-01-24T23:04:51.304Z,101721.50
2018-01-24T23:07:19.700Z,101722.02
2018-01-24T23:09:48.117Z,101710.59
2018-01-24T23:12:16.628Z,101704.45
2018-01-24T23:14:45.105Z,101706.06
2018-01-24T23:17:13.561Z,101701.03
2018-01-24T23:19:42.013Z,101693.28
2018-01-24T23:22:10.460Z,101695.08
2018-01-24T23:24:38.874Z,101694.03
2018-01-24T23:27:07.333Z,101699.98
2018-01-24T23:29:35.754Z,101702.53
2018-01-24T23:32:04.204Z,101685.06
2018-01-24T23:34:32.707Z,101680.85
2018-01-24T23:37:01.105Z,101687.61
2018-01-24T23:39:29.593Z,101675.58
2018-01-24T23:41:58.123Z,101657.14
2018-01-24T23:44:26.564Z,101670.65
2018-01-24T23:46:55.106Z,101670.20
2018-01-24T23:49:23.529Z,101677.89
2018-01-24T23:51:51.997Z,101672.58
2018-01-24T23:54:20.469Z,101663.14
2018-01-24T23:56:48.940Z,101664.72
2018-01-24T23:59:17.400Z,101651.08
